Terminal Aerodrome Forecast
Issued by NWS Upton, NY

Home | Current Version | Previous Version | Text Only | Print | Product List | Glossary On
Versions: 1 2 3 4 5 6 7 8 9 10 11 12 13 14 15 16 17 18 19 20 21 22 23 24 25 26 27 28 29 30 31
000
FTUS41 KOKX 251122
TAFEWR
TAF
KEWR 251122Z 2512/2618 22008KT P6SM BKN150
     FM251500 22012G20KT P6SM SCT150 BKN200
     FM251700 22018G28KT P6SM FEW050 BKN200
     FM260100 21014G22KT P6SM BKN250
     FM260400 22010KT P6SM BKN250=

USA.gov is the U.S. government's official web portal to all federal, state and local government web resources and services.